sensor_id;sensor_type;location;lat;lon;timestamp;P1;durP1;ratioP1;P2;durP2;ratioP2
4812;SDS011;2420;51.202;8.698;2024-02-23T00:00:01;1.38;;;0.82;;
4812;SDS011;2420;51.202;8.698;2024-02-23T00:02:30;1.00;;;0.70;;
4812;SDS011;2420;51.202;8.698;2024-02-23T00:04:56;1.02;;;0.80;;
4812;SDS011;2420;51.202;8.698;2024-02-23T00:07:22;1.20;;;0.80;;
4812;SDS011;2420;51.202;8.698;2024-02-23T00:09:47;0.75;;;0.70;;
4812;SDS011;2420;51.202;8.698;2024-02-23T00:12:13;0.85;;;0.65;;
4812;SDS011;2420;51.202;8.698;2024-02-23T00:14:39;1.67;;;0.75;;
4812;SDS011;2420;51.202;8.698;2024-02-23T00:17:04;0.70;;;0.70;;
4812;SDS011;2420;51.202;8.698;2024-02-23T00:19:30;3.45;;;0.75;;
4812;SDS011;2420;51.202;8.698;2024-02-23T00:21:56;3.80;;;1.10;;
4812;SDS011;2420;51.202;8.698;2024-02-23T00:24:24;1.40;;;0.80;;
4812;SDS011;2420;51.202;8.698;2024-02-23T00:26:52;1.00;;;0.90;;
4812;SDS011;2420;51.202;8.698;2024-02-23T00:29:18;1.17;;;0.80;;
4812;SDS011;2420;51.202;8.698;2024-02-23T00:31:44;0.98;;;0.75;;
4812;SDS011;2420;51.202;8.698;2024-02-23T00:34:13;1.90;;;0.90;;
4812;SDS011;2420;51.202;8.698;2024-02-23T00:36:39;1.08;;;0.90;;
4812;SDS011;2420;51.202;8.698;2024-02-23T00:39:06;1.00;;;0.80;;
4812;SDS011;2420;51.202;8.698;2024-02-23T00:41:32;0.88;;;0.88;;
4812;SDS011;2420;51.202;8.698;2024-02-23T00:43:58;1.02;;;0.80;;
4812;SDS011;2420;51.202;8.698;2024-02-23T00:46:24;1.40;;;1.02;;
4812;SDS011;2420;51.202;8.698;2024-02-23T00:48:49;1.90;;;1.10;;
4812;SDS011;2420;51.202;8.698;2024-02-23T00:51:15;1.17;;;0.80;;
4812;SDS011;2420;51.202;8.698;2024-02-23T00:53:41;1.10;;;0.90;;
4812;SDS011;2420;51.202;8.698;2024-02-23T00:56:06;1.10;;;1.00;;
4812;SDS011;2420;51.202;8.698;2024-02-23T00:58:32;0.70;;;0.70;;
4812;SDS011;2420;51.202;8.698;2024-02-23T01:00:58;1.10;;;0.80;;
4812;SDS011;2420;51.202;8.698;2024-02-23T01:03:24;1.00;;;0.82;;
4812;SDS011;2420;51.202;8.698;2024-02-23T01:05:50;1.25;;;0.80;;
4812;SDS011;2420;51.202;8.698;2024-02-23T01:08:15;1.85;;;0.80;;
4812;SDS011;2420;51.202;8.698;2024-02-23T01:10:41;1.02;;;0.80;;
4812;SDS011;2420;51.202;8.698;2024-02-23T01:13:07;2.53;;;1.10;;
4812;SDS011;2420;51.202;8.698;2024-02-23T01:15:32;1.00;;;0.85;;
4812;SDS011;2420;51.202;8.698;2024-02-23T01:17:58;1.65;;;0.80;;
4812;SDS011;2420;51.202;8.698;2024-02-23T01:20:23;1.42;;;1.00;;
4812;SDS011;2420;51.202;8.698;2024-02-23T01:22:49;0.90;;;0.90;;
4812;SDS011;2420;51.202;8.698;2024-02-23T01:25:14;0.80;;;0.80;;
4812;SDS011;2420;51.202;8.698;2024-02-23T01:27:40;2.03;;;0.95;;
4812;SDS011;2420;51.202;8.698;2024-02-23T01:30:06;1.15;;;0.88;;
4812;SDS011;2420;51.202;8.698;2024-02-23T01:32:32;1.20;;;1.00;;
4812;SDS011;2420;51.202;8.698;2024-02-23T01:34:58;0.90;;;0.80;;
4812;SDS011;2420;51.202;8.698;2024-02-23T01:37:23;1.05;;;0.98;;
4812;SDS011;2420;51.202;8.698;2024-02-23T01:39:49;0.80;;;0.80;;
4812;SDS011;2420;51.202;8.698;2024-02-23T01:42:15;1.42;;;0.90;;
4812;SDS011;2420;51.202;8.698;2024-02-23T01:44:40;3.63;;;1.10;;
4812;SDS011;2420;51.202;8.698;2024-02-23T01:47:06;1.25;;;0.90;;
4812;SDS011;2420;51.202;8.698;2024-02-23T01:49:32;0.95;;;0.90;;
4812;SDS011;2420;51.202;8.698;2024-02-23T01:52:00;1.77;;;0.88;;
4812;SDS011;2420;51.202;8.698;2024-02-23T01:54:26;0.82;;;0.82;;
4812;SDS011;2420;51.202;8.698;2024-02-23T01:56:53;0.90;;;0.90;;
4812;SDS011;2420;51.202;8.698;2024-02-23T01:59:20;1.25;;;1.10;;
4812;SDS011;2420;51.202;8.698;2024-02-23T02:01:46;1.20;;;0.90;;
4812;SDS011;2420;51.202;8.698;2024-02-23T02:04:11;1.00;;;0.90;;
4812;SDS011;2420;51.202;8.698;2024-02-23T02:06:37;1.00;;;0.90;;
4812;SDS011;2420;51.202;8.698;2024-02-23T02:09:03;1.65;;;1.10;;
4812;SDS011;2420;51.202;8.698;2024-02-23T02:11:28;2.45;;;1.10;;
4812;SDS011;2420;51.202;8.698;2024-02-23T02:13:54;0.95;;;0.95;;
4812;SDS011;2420;51.202;8.698;2024-02-23T02:16:19;1.48;;;1.00;;
4812;SDS011;2420;51.202;8.698;2024-02-23T02:18:45;1.25;;;0.90;;
4812;SDS011;2420;51.202;8.698;2024-02-23T02:21:11;1.08;;;0.80;;
4812;SDS011;2420;51.202;8.698;2024-02-23T02:23:36;0.80;;;0.80;;
4812;SDS011;2420;51.202;8.698;2024-02-23T02:26:02;1.08;;;0.90;;
4812;SDS011;2420;51.202;8.698;2024-02-23T02:28:29;0.90;;;0.85;;
4812;SDS011;2420;51.202;8.698;2024-02-23T02:30:54;0.98;;;0.93;;
4812;SDS011;2420;51.202;8.698;2024-02-23T02:33:20;1.20;;;1.00;;
4812;SDS011;2420;51.202;8.698;2024-02-23T02:35:46;0.93;;;0.90;;
4812;SDS011;2420;51.202;8.698;2024-02-23T02:38:12;1.77;;;1.02;;
4812;SDS011;2420;51.202;8.698;2024-02-23T02:40:38;1.25;;;0.90;;
4812;SDS011;2420;51.202;8.698;2024-02-23T02:43:03;0.93;;;0.90;;
4812;SDS011;2420;51.202;8.698;2024-02-23T02:45:29;1.40;;;0.93;;
4812;SDS011;2420;51.202;8.698;2024-02-23T02:47:55;1.50;;;0.90;;
4812;SDS011;2420;51.202;8.698;2024-02-23T02:50:21;2.15;;;1.00;;
4812;SDS011;2420;51.202;8.698;2024-02-23T02:52:47;1.33;;;0.85;;
4812;SDS011;2420;51.202;8.698;2024-02-23T02:55:12;1.10;;;1.00;;
4812;SDS011;2420;51.202;8.698;2024-02-23T02:57:38;1.10;;;1.00;;
4812;SDS011;2420;51.202;8.698;2024-02-23T03:00:04;1.10;;;1.00;;
4812;SDS011;2420;51.202;8.698;2024-02-23T03:02:35;2.55;;;1.00;;
4812;SDS011;2420;51.202;8.698;2024-02-23T03:05:00;1.10;;;0.90;;
4812;SDS011;2420;51.202;8.698;2024-02-23T03:07:27;1.48;;;1.02;;
4812;SDS011;2420;51.202;8.698;2024-02-23T03:09:53;1.75;;;1.02;;
4812;SDS011;2420;51.202;8.698;2024-02-23T03:12:19;2.13;;;1.10;;
4812;SDS011;2420;51.202;8.698;2024-02-23T03:14:44;1.55;;;0.90;;
4812;SDS011;2420;51.202;8.698;2024-02-23T03:17:10;2.45;;;1.00;;
4812;SDS011;2420;51.202;8.698;2024-02-23T03:19:36;2.17;;;1.10;;
4812;SDS011;2420;51.202;8.698;2024-02-23T03:22:02;3.30;;;0.90;;
4812;SDS011;2420;51.202;8.698;2024-02-23T03:24:28;1.98;;;0.88;;
4812;SDS011;2420;51.202;8.698;2024-02-23T03:26:53;2.97;;;1.10;;
4812;SDS011;2420;51.202;8.698;2024-02-23T03:29:20;2.15;;;1.00;;
4812;SDS011;2420;51.202;8.698;2024-02-23T03:31:47;2.17;;;1.20;;
4812;SDS011;2420;51.202;8.698;2024-02-23T03:34:12;1.98;;;1.30;;
4812;SDS011;2420;51.202;8.698;2024-02-23T03:36:38;1.00;;;0.82;;
4812;SDS011;2420;51.202;8.698;2024-02-23T03:39:04;2.78;;;1.10;;
4812;SDS011;2420;51.202;8.698;2024-02-23T03:41:29;1.73;;;0.85;;
4812;SDS011;2420;51.202;8.698;2024-02-23T03:43:55;1.88;;;1.02;;
4812;SDS011;2420;51.202;8.698;2024-02-23T03:46:20;1.80;;;1.20;;
4812;SDS011;2420;51.202;8.698;2024-02-23T03:48:46;1.67;;;1.00;;
4812;SDS011;2420;51.202;8.698;2024-02-23T03:51:12;1.30;;;0.90;;
4812;SDS011;2420;51.202;8.698;2024-02-23T03:53:38;1.73;;;1.10;;
4812;SDS011;2420;51.202;8.698;2024-02-23T03:56:03;3.42;;;1.08;;
4812;SDS011;2420;51.202;8.698;2024-02-23T03:58:29;1.17;;;0.90;;
4812;SDS011;2420;51.202;8.698;2024-02-23T04:00:55;2.70;;;1.00;;
4812;SDS011;2420;51.202;8.698;2024-02-23T04:03:20;4.63;;;1.10;;
4812;SDS011;2420;51.202;8.698;2024-02-23T04:05:46;2.38;;;0.90;;
4812;SDS011;2420;51.202;8.698;2024-02-23T04:08:11;1.52;;;0.90;;
4812;SDS011;2420;51.202;8.698;2024-02-23T04:10:38;2.63;;;1.00;;
4812;SDS011;2420;51.202;8.698;2024-02-23T04:13:03;1.75;;;0.90;;
4812;SDS011;2420;51.202;8.698;2024-02-23T04:15:29;2.53;;;0.90;;
4812;SDS011;2420;51.202;8.698;2024-02-23T04:17:55;3.47;;;1.02;;
4812;SDS011;2420;51.202;8.698;2024-02-23T04:20:20;4.40;;;1.20;;
4812;SDS011;2420;51.202;8.698;2024-02-23T04:22:46;2.75;;;1.25;;
4812;SDS011;2420;51.202;8.698;2024-02-23T04:25:12;4.10;;;1.00;;
4812;SDS011;2420;51.202;8.698;2024-02-23T04:27:37;2.85;;;1.08;;
4812;SDS011;2420;51.202;8.698;2024-02-23T04:30:03;1.63;;;0.70;;
4812;SDS011;2420;51.202;8.698;2024-02-23T04:32:29;5.65;;;1.00;;
4812;SDS011;2420;51.202;8.698;2024-02-23T04:34:55;3.60;;;1.00;;
4812;SDS011;2420;51.202;8.698;2024-02-23T04:37:21;2.03;;;1.00;;
4812;SDS011;2420;51.202;8.698;2024-02-23T04:39:47;3.85;;;1.20;;
4812;SDS011;2420;51.202;8.698;2024-02-23T04:42:12;2.20;;;1.10;;
4812;SDS011;2420;51.202;8.698;2024-02-23T04:44:38;4.25;;;1.10;;
4812;SDS011;2420;51.202;8.698;2024-02-23T04:47:05;3.10;;;1.13;;
4812;SDS011;2420;51.202;8.698;2024-02-23T04:49:31;3.17;;;1.00;;
4812;SDS011;2420;51.202;8.698;2024-02-23T04:51:56;3.28;;;0.90;;
4812;SDS011;2420;51.202;8.698;2024-02-23T04:54:22;5.38;;;1.20;;
4812;SDS011;2420;51.202;8.698;2024-02-23T04:56:47;3.83;;;1.67;;
4812;SDS011;2420;51.202;8.698;2024-02-23T04:59:13;2.90;;;1.40;;
4812;SDS011;2420;51.202;8.698;2024-02-23T05:01:39;2.42;;;1.00;;
4812;SDS011;2420;51.202;8.698;2024-02-23T05:04:05;2.10;;;1.00;;
4812;SDS011;2420;51.202;8.698;2024-02-23T05:06:31;1.90;;;1.10;;
4812;SDS011;2420;51.202;8.698;2024-02-23T05:08:56;1.17;;;0.93;;
4812;SDS011;2420;51.202;8.698;2024-02-23T05:11:22;2.05;;;0.90;;
4812;SDS011;2420;51.202;8.698;2024-02-23T05:13:47;2.95;;;1.00;;
4812;SDS011;2420;51.202;8.698;2024-02-23T05:16:13;4.03;;;1.20;;
4812;SDS011;2420;51.202;8.698;2024-02-23T05:18:39;2.40;;;1.27;;
4812;SDS011;2420;51.202;8.698;2024-02-23T05:21:06;4.25;;;1.75;;
4812;SDS011;2420;51.202;8.698;2024-02-23T05:23:32;2.90;;;1.30;;
4812;SDS011;2420;51.202;8.698;2024-02-23T05:25:58;2.75;;;1.27;;
4812;SDS011;2420;51.202;8.698;2024-02-23T05:28:23;1.42;;;1.17;;
4812;SDS011;2420;51.202;8.698;2024-02-23T05:30:49;1.88;;;1.30;;
4812;SDS011;2420;51.202;8.698;2024-02-23T05:33:14;4.32;;;1.25;;
4812;SDS011;2420;51.202;8.698;2024-02-23T05:35:40;3.95;;;1.92;;
4812;SDS011;2420;51.202;8.698;2024-02-23T05:38:05;2.60;;;2.00;;
4812;SDS011;2420;51.202;8.698;2024-02-23T05:40:31;9.50;;;4.28;;
4812;SDS011;2420;51.202;8.698;2024-02-23T05:43:01;8.60;;;3.47;;
4812;SDS011;2420;51.202;8.698;2024-02-23T05:45:26;10.32;;;4.38;;
4812;SDS011;2420;51.202;8.698;2024-02-23T05:47:52;10.52;;;5.25;;
4812;SDS011;2420;51.202;8.698;2024-02-23T05:50:17;7.60;;;3.17;;
4812;SDS011;2420;51.202;8.698;2024-02-23T05:52:43;2.15;;;1.40;;
4812;SDS011;2420;51.202;8.698;2024-02-23T05:55:08;9.68;;;4.03;;
4812;SDS011;2420;51.202;8.698;2024-02-23T05:57:34;3.50;;;1.73;;
4812;SDS011;2420;51.202;8.698;2024-02-23T06:00:00;2.70;;;1.90;;
4812;SDS011;2420;51.202;8.698;2024-02-23T06:02:25;4.30;;;2.00;;
4812;SDS011;2420;51.202;8.698;2024-02-23T06:04:51;2.22;;;1.48;;
4812;SDS011;2420;51.202;8.698;2024-02-23T06:07:16;2.08;;;1.00;;
4812;SDS011;2420;51.202;8.698;2024-02-23T06:09:42;4.13;;;1.52;;
4812;SDS011;2420;51.202;8.698;2024-02-23T06:12:08;3.30;;;0.98;;
4812;SDS011;2420;51.202;8.698;2024-02-23T06:14:34;3.33;;;0.98;;
4812;SDS011;2420;51.202;8.698;2024-02-23T06:17:00;2.05;;;1.10;;
4812;SDS011;2420;51.202;8.698;2024-02-23T06:19:26;3.25;;;1.40;;
4812;SDS011;2420;51.202;8.698;2024-02-23T06:21:52;2.95;;;1.15;;
4812;SDS011;2420;51.202;8.698;2024-02-23T06:24:17;0.70;;;0.70;;
4812;SDS011;2420;51.202;8.698;2024-02-23T06:26:44;3.42;;;0.95;;
4812;SDS011;2420;51.202;8.698;2024-02-23T06:29:11;4.13;;;1.60;;
4812;SDS011;2420;51.202;8.698;2024-02-23T06:31:38;1.92;;;1.02;;
4812;SDS011;2420;51.202;8.698;2024-02-23T06:34:04;3.22;;;0.93;;
4812;SDS011;2420;51.202;8.698;2024-02-23T06:36:30;2.75;;;1.20;;
4812;SDS011;2420;51.202;8.698;2024-02-23T06:38:55;3.22;;;1.33;;
4812;SDS011;2420;51.202;8.698;2024-02-23T06:41:21;1.75;;;1.02;;
4812;SDS011;2420;51.202;8.698;2024-02-23T06:43:47;3.15;;;1.20;;
4812;SDS011;2420;51.202;8.698;2024-02-23T06:46:13;3.97;;;1.02;;
4812;SDS011;2420;51.202;8.698;2024-02-23T06:48:38;3.35;;;1.35;;
4812;SDS011;2420;51.202;8.698;2024-02-23T06:51:04;1.08;;;0.98;;
4812;SDS011;2420;51.202;8.698;2024-02-23T06:53:30;4.82;;;1.60;;
4812;SDS011;2420;51.202;8.698;2024-02-23T06:55:55;1.38;;;0.98;;
4812;SDS011;2420;51.202;8.698;2024-02-23T06:58:21;3.80;;;1.35;;
4812;SDS011;2420;51.202;8.698;2024-02-23T07:00:47;3.17;;;1.20;;
4812;SDS011;2420;51.202;8.698;2024-02-23T07:03:13;3.20;;;1.00;;
4812;SDS011;2420;51.202;8.698;2024-02-23T07:05:39;3.10;;;1.10;;
4812;SDS011;2420;51.202;8.698;2024-02-23T07:08:07;3.97;;;1.45;;
4812;SDS011;2420;51.202;8.698;2024-02-23T07:10:32;2.55;;;1.45;;
4812;SDS011;2420;51.202;8.698;2024-02-23T07:12:58;5.35;;;1.52;;
4812;SDS011;2420;51.202;8.698;2024-02-23T07:15:24;5.05;;;1.60;;
4812;SDS011;2420;51.202;8.698;2024-02-23T07:17:50;2.65;;;1.13;;
4812;SDS011;2420;51.202;8.698;2024-02-23T07:20:19;2.90;;;1.08;;
4812;SDS011;2420;51.202;8.698;2024-02-23T07:22:45;2.55;;;1.10;;
4812;SDS011;2420;51.202;8.698;2024-02-23T07:25:11;2.20;;;0.90;;
4812;SDS011;2420;51.202;8.698;2024-02-23T07:27:37;3.72;;;1.15;;
4812;SDS011;2420;51.202;8.698;2024-02-23T07:30:02;3.00;;;1.50;;
4812;SDS011;2420;51.202;8.698;2024-02-23T07:32:29;3.42;;;1.23;;
4812;SDS011;2420;51.202;8.698;2024-02-23T07:34:55;1.65;;;1.08;;
4812;SDS011;2420;51.202;8.698;2024-02-23T07:37:21;1.98;;;1.15;;
4812;SDS011;2420;51.202;8.698;2024-02-23T07:39:46;2.22;;;1.20;;
4812;SDS011;2420;51.202;8.698;2024-02-23T07:42:12;4.82;;;1.40;;
4812;SDS011;2420;51.202;8.698;2024-02-23T07:44:39;3.42;;;1.20;;
4812;SDS011;2420;51.202;8.698;2024-02-23T07:47:05;3.65;;;1.30;;
4812;SDS011;2420;51.202;8.698;2024-02-23T07:49:31;3.17;;;1.40;;
4812;SDS011;2420;51.202;8.698;2024-02-23T07:51:56;3.50;;;1.88;;
4812;SDS011;2420;51.202;8.698;2024-02-23T07:54:22;8.10;;;1.95;;
4812;SDS011;2420;51.202;8.698;2024-02-23T07:56:47;6.57;;;1.30;;
4812;SDS011;2420;51.202;8.698;2024-02-23T07:59:13;6.88;;;1.30;;
4812;SDS011;2420;51.202;8.698;2024-02-23T08:01:38;3.55;;;1.27;;
4812;SDS011;2420;51.202;8.698;2024-02-23T08:04:05;3.67;;;1.60;;
4812;SDS011;2420;51.202;8.698;2024-02-23T08:06:30;2.67;;;1.42;;
4812;SDS011;2420;51.202;8.698;2024-02-23T08:08:56;2.53;;;1.33;;
4812;SDS011;2420;51.202;8.698;2024-02-23T08:11:22;3.85;;;1.55;;
4812;SDS011;2420;51.202;8.698;2024-02-23T08:13:47;5.65;;;1.30;;
4812;SDS011;2420;51.202;8.698;2024-02-23T08:16:13;2.08;;;1.10;;
4812;SDS011;2420;51.202;8.698;2024-02-23T08:18:41;3.58;;;1.50;;
4812;SDS011;2420;51.202;8.698;2024-02-23T08:21:06;7.20;;;1.40;;
4812;SDS011;2420;51.202;8.698;2024-02-23T08:23:32;2.20;;;1.30;;
4812;SDS011;2420;51.202;8.698;2024-02-23T08:25:58;2.90;;;1.40;;
4812;SDS011;2420;51.202;8.698;2024-02-23T08:28:25;3.25;;;1.60;;
4812;SDS011;2420;51.202;8.698;2024-02-23T08:30:51;4.47;;;1.20;;
4812;SDS011;2420;51.202;8.698;2024-02-23T08:33:18;3.72;;;1.30;;
4812;SDS011;2420;51.202;8.698;2024-02-23T08:35:43;3.58;;;1.60;;
4812;SDS011;2420;51.202;8.698;2024-02-23T08:38:09;7.43;;;1.48;;
4812;SDS011;2420;51.202;8.698;2024-02-23T08:40:35;4.00;;;1.25;;
4812;SDS011;2420;51.202;8.698;2024-02-23T08:43:00;5.07;;;1.45;;
4812;SDS011;2420;51.202;8.698;2024-02-23T08:45:26;3.92;;;1.17;;
4812;SDS011;2420;51.202;8.698;2024-02-23T08:47:52;2.95;;;1.40;;
4812;SDS011;2420;51.202;8.698;2024-02-23T08:50:17;1.80;;;1.30;;
4812;SDS011;2420;51.202;8.698;2024-02-23T08:52:43;1.88;;;1.20;;
4812;SDS011;2420;51.202;8.698;2024-02-23T08:55:09;7.63;;;1.75;;
4812;SDS011;2420;51.202;8.698;2024-02-23T08:57:36;2.97;;;1.15;;
4812;SDS011;2420;51.202;8.698;2024-02-23T09:00:02;4.35;;;1.33;;
4812;SDS011;2420;51.202;8.698;2024-02-23T09:02:29;4.22;;;1.23;;
4812;SDS011;2420;51.202;8.698;2024-02-23T09:04:56;5.38;;;1.40;;
4812;SDS011;2420;51.202;8.698;2024-02-23T09:07:21;2.25;;;1.10;;
4812;SDS011;2420;51.202;8.698;2024-02-23T09:09:47;4.30;;;1.40;;
4812;SDS011;2420;51.202;8.698;2024-02-23T09:12:13;5.75;;;1.65;;
4812;SDS011;2420;51.202;8.698;2024-02-23T09:14:41;4.43;;;1.40;;
4812;SDS011;2420;51.202;8.698;2024-02-23T09:17:08;3.83;;;1.38;;
4812;SDS011;2420;51.202;8.698;2024-02-23T09:19:34;2.05;;;1.10;;
4812;SDS011;2420;51.202;8.698;2024-02-23T09:22:01;4.20;;;1.40;;
4812;SDS011;2420;51.202;8.698;2024-02-23T09:24:27;2.35;;;1.10;;
4812;SDS011;2420;51.202;8.698;2024-02-23T09:26:53;4.03;;;1.27;;
4812;SDS011;2420;51.202;8.698;2024-02-23T09:29:18;3.97;;;1.20;;
4812;SDS011;2420;51.202;8.698;2024-02-23T09:31:44;2.35;;;1.20;;
4812;SDS011;2420;51.202;8.698;2024-02-23T09:34:10;4.18;;;1.45;;
4812;SDS011;2420;51.202;8.698;2024-02-23T09:36:35;2.90;;;1.30;;
4812;SDS011;2420;51.202;8.698;2024-02-23T09:39:01;4.45;;;1.60;;
4812;SDS011;2420;51.202;8.698;2024-02-23T09:41:29;4.53;;;1.30;;
4812;SDS011;2420;51.202;8.698;2024-02-23T09:43:56;4.95;;;1.20;;
4812;SDS011;2420;51.202;8.698;2024-02-23T09:46:23;2.55;;;1.33;;
4812;SDS011;2420;51.202;8.698;2024-02-23T09:48:50;4.70;;;1.23;;
4812;SDS011;2420;51.202;8.698;2024-02-23T09:51:16;4.47;;;1.48;;
4812;SDS011;2420;51.202;8.698;2024-02-23T09:53:42;3.28;;;1.10;;
4812;SDS011;2420;51.202;8.698;2024-02-23T09:56:09;4.68;;;1.70;;
4812;SDS011;2420;51.202;8.698;2024-02-23T09:58:35;3.10;;;1.50;;
4812;SDS011;2420;51.202;8.698;2024-02-23T10:01:02;3.28;;;1.58;;
4812;SDS011;2420;51.202;8.698;2024-02-23T10:03:29;3.95;;;1.60;;
4812;SDS011;2420;51.202;8.698;2024-02-23T10:05:56;6.93;;;1.67;;
4812;SDS011;2420;51.202;8.698;2024-02-23T10:08:26;4.20;;;1.60;;
4812;SDS011;2420;51.202;8.698;2024-02-23T10:10:52;3.70;;;1.70;;
4812;SDS011;2420;51.202;8.698;2024-02-23T10:13:19;5.13;;;1.35;;
4812;SDS011;2420;51.202;8.698;2024-02-23T10:15:49;3.88;;;1.40;;
4812;SDS011;2420;51.202;8.698;2024-02-23T10:18:18;4.57;;;1.52;;
4812;SDS011;2420;51.202;8.698;2024-02-23T10:20:44;4.45;;;1.80;;
4812;SDS011;2420;51.202;8.698;2024-02-23T10:23:09;3.67;;;1.40;;
4812;SDS011;2420;51.202;8.698;2024-02-23T10:25:36;7.95;;;1.77;;
4812;SDS011;2420;51.202;8.698;2024-02-23T10:28:05;2.95;;;1.45;;
4812;SDS011;2420;51.202;8.698;2024-02-23T10:30:31;2.85;;;1.40;;
4812;SDS011;2420;51.202;8.698;2024-02-23T10:32:57;4.22;;;1.70;;
4812;SDS011;2420;51.202;8.698;2024-02-23T10:35:24;3.80;;;1.35;;
4812;SDS011;2420;51.202;8.698;2024-02-23T10:37:50;4.18;;;1.35;;
4812;SDS011;2420;51.202;8.698;2024-02-23T10:40:20;3.55;;;1.45;;
4812;SDS011;2420;51.202;8.698;2024-02-23T10:42:47;3.25;;;1.77;;
4812;SDS011;2420;51.202;8.698;2024-02-23T10:45:16;4.75;;;1.38;;
4812;SDS011;2420;51.202;8.698;2024-02-23T10:47:43;5.80;;;1.67;;
4812;SDS011;2420;51.202;8.698;2024-02-23T10:50:09;4.20;;;1.58;;
4812;SDS011;2420;51.202;8.698;2024-02-23T10:52:39;4.97;;;1.70;;
4812;SDS011;2420;51.202;8.698;2024-02-23T10:55:06;4.43;;;1.77;;
4812;SDS011;2420;51.202;8.698;2024-02-23T10:57:37;2.80;;;1.13;;
4812;SDS011;2420;51.202;8.698;2024-02-23T11:00:04;3.15;;;1.35;;
4812;SDS011;2420;51.202;8.698;2024-02-23T11:02:34;6.78;;;1.73;;
4812;SDS011;2420;51.202;8.698;2024-02-23T11:05:08;3.35;;;1.52;;
4812;SDS011;2420;51.202;8.698;2024-02-23T11:07:40;2.42;;;1.38;;
4812;SDS011;2420;51.202;8.698;2024-02-23T11:10:06;7.13;;;2.13;;
4812;SDS011;2420;51.202;8.698;2024-02-23T11:12:33;3.05;;;1.75;;
4812;SDS011;2420;51.202;8.698;2024-02-23T11:15:00;2.63;;;1.40;;
4812;SDS011;2420;51.202;8.698;2024-02-23T11:17:26;4.05;;;1.60;;
4812;SDS011;2420;51.202;8.698;2024-02-23T11:19:54;4.30;;;1.50;;
4812;SDS011;2420;51.202;8.698;2024-02-23T11:22:32;4.25;;;2.08;;
4812;SDS011;2420;51.202;8.698;2024-02-23T11:25:00;4.32;;;1.73;;
4812;SDS011;2420;51.202;8.698;2024-02-23T11:27:30;4.88;;;1.52;;
4812;SDS011;2420;51.202;8.698;2024-02-23T11:30:03;2.58;;;1.38;;
4812;SDS011;2420;51.202;8.698;2024-02-23T11:35:05;2.92;;;1.30;;
4812;SDS011;2420;51.202;8.698;2024-02-23T11:37:31;4.68;;;1.58;;
4812;SDS011;2420;51.202;8.698;2024-02-23T11:39:57;4.18;;;1.85;;
4812;SDS011;2420;51.202;8.698;2024-02-23T11:42:25;4.60;;;1.40;;
4812;SDS011;2420;51.202;8.698;2024-02-23T11:44:52;2.63;;;1.30;;
4812;SDS011;2420;51.202;8.698;2024-02-23T11:47:21;3.83;;;1.40;;
4812;SDS011;2420;51.202;8.698;2024-02-23T11:49:46;2.95;;;1.40;;
4812;SDS011;2420;51.202;8.698;2024-02-23T11:52:12;4.32;;;1.77;;
4812;SDS011;2420;51.202;8.698;2024-02-23T11:54:37;5.32;;;1.45;;
4812;SDS011;2420;51.202;8.698;2024-02-23T11:57:03;4.75;;;1.60;;
4812;SDS011;2420;51.202;8.698;2024-02-23T11:59:29;2.38;;;1.40;;
4812;SDS011;2420;51.202;8.698;2024-02-23T12:01:54;6.72;;;1.33;;
4812;SDS011;2420;51.202;8.698;2024-02-23T12:04:20;1.60;;;1.38;;
4812;SDS011;2420;51.202;8.698;2024-02-23T12:06:45;2.72;;;1.42;;
4812;SDS011;2420;51.202;8.698;2024-02-23T12:09:12;5.55;;;1.40;;
4812;SDS011;2420;51.202;8.698;2024-02-23T12:11:38;3.10;;;1.45;;
4812;SDS011;2420;51.202;8.698;2024-02-23T12:14:04;3.20;;;1.50;;
4812;SDS011;2420;51.202;8.698;2024-02-23T12:16:33;3.28;;;1.50;;
4812;SDS011;2420;51.202;8.698;2024-02-23T12:19:01;6.63;;;2.17;;
4812;SDS011;2420;51.202;8.698;2024-02-23T12:21:28;5.47;;;1.55;;
4812;SDS011;2420;51.202;8.698;2024-02-23T12:23:53;4.82;;;1.33;;
4812;SDS011;2420;51.202;8.698;2024-02-23T12:26:19;3.15;;;1.50;;
4812;SDS011;2420;51.202;8.698;2024-02-23T12:28:45;2.90;;;1.40;;
4812;SDS011;2420;51.202;8.698;2024-02-23T12:31:11;2.83;;;1.40;;
4812;SDS011;2420;51.202;8.698;2024-02-23T12:33:37;3.88;;;1.20;;
4812;SDS011;2420;51.202;8.698;2024-02-23T12:36:05;4.15;;;1.27;;
4812;SDS011;2420;51.202;8.698;2024-02-23T12:38:31;4.10;;;1.20;;
4812;SDS011;2420;51.202;8.698;2024-02-23T12:40:58;5.07;;;1.23;;
4812;SDS011;2420;51.202;8.698;2024-02-23T12:43:24;3.90;;;1.20;;
4812;SDS011;2420;51.202;8.698;2024-02-23T12:45:51;2.65;;;1.38;;
4812;SDS011;2420;51.202;8.698;2024-02-23T12:48:17;3.47;;;1.70;;
4812;SDS011;2420;51.202;8.698;2024-02-23T12:50:44;3.47;;;1.30;;
4812;SDS011;2420;51.202;8.698;2024-02-23T12:56:05;3.92;;;1.15;;
4812;SDS011;2420;51.202;8.698;2024-02-23T12:58:33;2.45;;;1.10;;
4812;SDS011;2420;51.202;8.698;2024-02-23T13:01:01;3.72;;;1.33;;
4812;SDS011;2420;51.202;8.698;2024-02-23T13:03:27;4.00;;;1.10;;
4812;SDS011;2420;51.202;8.698;2024-02-23T13:05:54;1.65;;;1.08;;
4812;SDS011;2420;51.202;8.698;2024-02-23T13:08:20;3.40;;;1.38;;
4812;SDS011;2420;51.202;8.698;2024-02-23T13:10:46;2.83;;;1.25;;
4812;SDS011;2420;51.202;8.698;2024-02-23T13:13:12;2.97;;;1.05;;
4812;SDS011;2420;51.202;8.698;2024-02-23T13:15:39;2.95;;;1.30;;
4812;SDS011;2420;51.202;8.698;2024-02-23T13:18:08;1.90;;;1.08;;
4812;SDS011;2420;51.202;8.698;2024-02-23T13:20:34;4.93;;;1.98;;
4812;SDS011;2420;51.202;8.698;2024-02-23T13:23:00;5.07;;;1.98;;
4812;SDS011;2420;51.202;8.698;2024-02-23T13:25:27;6.55;;;2.97;;
4812;SDS011;2420;51.202;8.698;2024-02-23T13:27:52;2.65;;;1.30;;
4812;SDS011;2420;51.202;8.698;2024-02-23T13:30:18;3.58;;;1.73;;
4812;SDS011;2420;51.202;8.698;2024-02-23T13:32:44;3.72;;;1.50;;
4812;SDS011;2420;51.202;8.698;2024-02-23T13:35:10;2.35;;;1.40;;
4812;SDS011;2420;51.202;8.698;2024-02-23T13:37:35;1.75;;;1.20;;
4812;SDS011;2420;51.202;8.698;2024-02-23T13:40:01;3.85;;;1.50;;
4812;SDS011;2420;51.202;8.698;2024-02-23T13:42:26;2.13;;;1.38;;
4812;SDS011;2420;51.202;8.698;2024-02-23T13:44:52;3.35;;;1.10;;
4812;SDS011;2420;51.202;8.698;2024-02-23T13:47:17;1.20;;;1.10;;
4812;SDS011;2420;51.202;8.698;2024-02-23T13:49:43;2.85;;;1.40;;
4812;SDS011;2420;51.202;8.698;2024-02-23T13:52:08;1.85;;;1.13;;
4812;SDS011;2420;51.202;8.698;2024-02-23T13:54:34;3.08;;;1.17;;
4812;SDS011;2420;51.202;8.698;2024-02-23T13:56:59;3.55;;;1.10;;
4812;SDS011;2420;51.202;8.698;2024-02-23T13:59:25;4.15;;;1.40;;
4812;SDS011;2420;51.202;8.698;2024-02-23T14:01:51;4.97;;;1.60;;
4812;SDS011;2420;51.202;8.698;2024-02-23T14:04:16;1.88;;;1.10;;
4812;SDS011;2420;51.202;8.698;2024-02-23T14:06:42;4.03;;;1.20;;
4812;SDS011;2420;51.202;8.698;2024-02-23T14:09:08;2.35;;;1.40;;
4812;SDS011;2420;51.202;8.698;2024-02-23T14:11:34;2.65;;;1.00;;
4812;SDS011;2420;51.202;8.698;2024-02-23T14:14:00;1.98;;;1.08;;
4812;SDS011;2420;51.202;8.698;2024-02-23T14:16:27;3.47;;;1.55;;
4812;SDS011;2420;51.202;8.698;2024-02-23T14:18:52;5.47;;;1.50;;
4812;SDS011;2420;51.202;8.698;2024-02-23T14:21:18;2.05;;;1.40;;
4812;SDS011;2420;51.202;8.698;2024-02-23T14:23:43;3.55;;;1.45;;
4812;SDS011;2420;51.202;8.698;2024-02-23T14:26:09;3.42;;;1.80;;
4812;SDS011;2420;51.202;8.698;2024-02-23T14:28:35;2.15;;;1.48;;
4812;SDS011;2420;51.202;8.698;2024-02-23T14:31:00;3.67;;;1.80;;
4812;SDS011;2420;51.202;8.698;2024-02-23T14:33:26;2.97;;;1.20;;
4812;SDS011;2420;51.202;8.698;2024-02-23T14:35:51;3.50;;;1.63;;
4812;SDS011;2420;51.202;8.698;2024-02-23T14:38:17;2.50;;;1.05;;
4812;SDS011;2420;51.202;8.698;2024-02-23T14:40:43;2.20;;;1.20;;
4812;SDS011;2420;51.202;8.698;2024-02-23T14:43:08;3.80;;;1.08;;
4812;SDS011;2420;51.202;8.698;2024-02-23T14:45:34;2.33;;;1.38;;
4812;SDS011;2420;51.202;8.698;2024-02-23T14:48:00;3.95;;;1.30;;
4812;SDS011;2420;51.202;8.698;2024-02-23T14:50:26;1.63;;;1.23;;
4812;SDS011;2420;51.202;8.698;2024-02-23T14:52:52;2.40;;;1.30;;
4812;SDS011;2420;51.202;8.698;2024-02-23T14:55:18;2.42;;;1.35;;
4812;SDS011;2420;51.202;8.698;2024-02-23T14:57:44;2.20;;;1.20;;
4812;SDS011;2420;51.202;8.698;2024-02-23T15:00:10;2.28;;;1.23;;
4812;SDS011;2420;51.202;8.698;2024-02-23T15:02:37;3.30;;;1.30;;
4812;SDS011;2420;51.202;8.698;2024-02-23T15:05:04;2.17;;;1.30;;
4812;SDS011;2420;51.202;8.698;2024-02-23T15:07:30;3.13;;;1.90;;
4812;SDS011;2420;51.202;8.698;2024-02-23T15:09:56;4.85;;;1.45;;
4812;SDS011;2420;51.202;8.698;2024-02-23T15:12:22;6.13;;;1.83;;